Nevskiy-22 — UFSO — position and weather

sailwx.info

Track history (hours):
 
Tides and Currents Weather Stations Pressure Air Temp Water Temp Dewpoint Dewpoint Depression Visibility Wind Speed Wind Dir Waves Ship Positions

Nevskiy-22

Last reported at 2014-Nov-29 03:32 UTC. Time now 2014-Nov-29 05:07 UTC.
Position N 59°57' E 030°17'.

Length 111 m; draft 3 m.

Type: Cargo ship. MMSI: 273449940.

Date/timePositionNaut miles runAvg speedWind from/ knotsBaromVisibWave heightAir tempDewpointWater temp
2014-Nov-29 03:32N 59°57' E 030°17'1 0.8
2014-Nov-29 02:30N 59°57' E 030°15'0 0.0
2014-Nov-29 01:32N 59°57' E 030°15'0 0.0
2014-Nov-29 00:32N 59°57' E 030°15'0 0.0
2014-Nov-28 23:33N 59°57' E 030°15'0 0.0
2014-Nov-28 22:33N 59°57' E 030°15'0 0.0
2014-Nov-28 21:30N 59°57' E 030°15'0 0.0
2014-Nov-28 20:14N 59°57' E 030°15'0 0.0
2014-Nov-28 19:21N 59°57' E 030°15'0 0.0
2014-Nov-28 18:20N 59°57' E 030°15'0 0.0
2014-Nov-28 17:32N 59°57' E 030°15'0 0.0
2014-Nov-28 16:31N 59°57' E 030°15'0 0.0
2014-Nov-28 15:32N 59°57' E 030°15'0 0.0
2014-Nov-28 14:33N 59°57' E 030°15'0 0.0
2014-Nov-28 13:08N 59°57' E 030°15'0 0.0
2014-Nov-28 12:33N 59°57' E 030°15'0 0.0
2014-Nov-28 11:33N 59°57' E 030°15'0 0.0
2014-Nov-28 10:32N 59°57' E 030°15'0 0.0
2014-Nov-28 09:33N 59°57' E 030°15'0 0.0
2014-Nov-28 08:33N 59°57' E 030°15'0 0.0
2014-Nov-28 07:33N 59°57' E 030°15'0 0.0
2014-Nov-28 06:32N 59°57' E 030°15'0 0.0
2014-Nov-28 05:33N 59°57' E 030°15'0 0.0
2014-Nov-28 04:33N 59°57' E 030°15'0 0.0
2014-Nov-28 03:33N 59°57' E 030°15'0 0.0
2014-Nov-28 02:33N 59°57' E 030°15'0 0.0
2014-Nov-28 01:33N 59°57' E 030°15'0 0.0
2014-Nov-28 00:33N 59°57' E 030°15'0 0.0
2014-Nov-27 23:33N 59°57' E 030°15'1 0.8
2014-Nov-27 22:32N 59°58' E 030°14'0 0.4
2014-Nov-27 21:33N 59°58' E 030°13'0 0.0
2014-Nov-27 20:33N 59°58' E 030°13'0 0.0
2014-Nov-27 19:33N 59°58' E 030°13'0 0.0
2014-Nov-27 17:33N 59°58' E 030°13'0 0.0
2014-Nov-27 16:33N 59°58' E 030°13'0 0.0
2014-Nov-27 15:33N 59°58' E 030°13'0 0.0
2014-Nov-27 14:33N 59°58' E 030°13'0 0.0
2014-Nov-27 13:33N 59°58' E 030°13'0 0.0
2014-Nov-27 12:32N 59°58' E 030°13'0 0.0
2014-Nov-27 11:33N 59°58' E 030°13'3 2.6
2014-Nov-27 10:33N 59°57' E 030°09'3 0.2
2014-Nov-26 21:03N 59°58' E 030°14'2 0.4
2014-Nov-26 14:32N 59°57' E 030°18'5 5.2
2014-Nov-26 13:33N 59°57' E 030°08'1 0.1
2014-Nov-25 16:12N 59°57' E 030°10'5 0.5
2014-Nov-25 06:14N 59°57' E 030°20'5 0.3
2014-Nov-24 16:10N 59°58' E 030°11'2 0.1
2014-Nov-23 10:17N 59°58' E 030°15'  
2014-Nov-20 23:05N 59°57' E 030°16'5 0.4
2014-Nov-20 09:33N 59°57' E 030°07'7 6.9
2014-Nov-20 08:31N 59°57' E 030°21'2 0.4
2014-Nov-20 02:32N 59°57' E 030°16'0 0.0
2014-Nov-19 09:33N 59°57' E 030°17'  
Track history (hours):
 
Tides and Currents Weather Stations Pressure Air Temp Water Temp Dewpoint Dewpoint Depression Visibility Wind Speed Wind Dir Waves Ship Positions

Nevskiy-22

Last reported at 2014-Nov-29 03:32 UTC. Time now 2014-Nov-29 05:07 UTC.
Position N 59°57' E 030°17'.

Length 111 m; draft 3 m.

Type: Cargo ship. MMSI: 273449940.

Date/timePositionNaut miles runAvg speedWind from/ knotsBaromVisibWave heightAir tempDewpointWater temp
2014-Nov-29 03:32N 59°57' E 030°17'1 0.8
2014-Nov-29 02:30N 59°57' E 030°15'0 0.0
2014-Nov-29 01:32N 59°57' E 030°15'0 0.0
2014-Nov-29 00:32N 59°57' E 030°15'0 0.0
2014-Nov-28 23:33N 59°57' E 030°15'0 0.0
2014-Nov-28 22:33N 59°57' E 030°15'0 0.0
2014-Nov-28 21:30N 59°57' E 030°15'0 0.0
2014-Nov-28 20:14N 59°57' E 030°15'0 0.0
2014-Nov-28 19:21N 59°57' E 030°15'0 0.0
2014-Nov-28 18:20N 59°57' E 030°15'0 0.0
2014-Nov-28 17:32N 59°57' E 030°15'0 0.0
2014-Nov-28 16:31N 59°57' E 030°15'0 0.0
2014-Nov-28 15:32N 59°57' E 030°15'0 0.0
2014-Nov-28 14:33N 59°57' E 030°15'0 0.0
2014-Nov-28 13:08N 59°57' E 030°15'0 0.0
2014-Nov-28 12:33N 59°57' E 030°15'0 0.0
2014-Nov-28 11:33N 59°57' E 030°15'0 0.0
2014-Nov-28 10:32N 59°57' E 030°15'0 0.0
2014-Nov-28 09:33N 59°57' E 030°15'0 0.0
2014-Nov-28 08:33N 59°57' E 030°15'0 0.0
2014-Nov-28 07:33N 59°57' E 030°15'0 0.0
2014-Nov-28 06:32N 59°57' E 030°15'0 0.0
2014-Nov-28 05:33N 59°57' E 030°15'0 0.0
2014-Nov-28 04:33N 59°57' E 030°15'0 0.0
2014-Nov-28 03:33N 59°57' E 030°15'0 0.0
2014-Nov-28 02:33N 59°57' E 030°15'0 0.0
2014-Nov-28 01:33N 59°57' E 030°15'0 0.0
2014-Nov-28 00:33N 59°57' E 030°15'0 0.0
2014-Nov-27 23:33N 59°57' E 030°15'1 0.8
2014-Nov-27 22:32N 59°58' E 030°14'0 0.4
2014-Nov-27 21:33N 59°58' E 030°13'0 0.0
2014-Nov-27 20:33N 59°58' E 030°13'0 0.0
2014-Nov-27 19:33N 59°58' E 030°13'0 0.0
2014-Nov-27 17:33N 59°58' E 030°13'0 0.0
2014-Nov-27 16:33N 59°58' E 030°13'0 0.0
2014-Nov-27 15:33N 59°58' E 030°13'0 0.0
2014-Nov-27 14:33N 59°58' E 030°13'0 0.0
2014-Nov-27 13:33N 59°58' E 030°13'0 0.0
2014-Nov-27 12:32N 59°58' E 030°13'0 0.0
2014-Nov-27 11:33N 59°58' E 030°13'3 2.6
2014-Nov-27 10:33N 59°57' E 030°09'3 0.2
2014-Nov-26 21:03N 59°58' E 030°14'2 0.4
2014-Nov-26 14:32N 59°57' E 030°18'5 5.2
2014-Nov-26 13:33N 59°57' E 030°08'1 0.1
2014-Nov-25 16:12N 59°57' E 030°10'5 0.5
2014-Nov-25 06:14N 59°57' E 030°20'5 0.3
2014-Nov-24 16:10N 59°58' E 030°11'2 0.1
2014-Nov-23 10:17N 59°58' E 030°15'  
2014-Nov-20 23:05N 59°57' E 030°16'5 0.4
2014-Nov-20 09:33N 59°57' E 030°07'7 6.9
2014-Nov-20 08:31N 59°57' E 030°21'2 0.4
2014-Nov-20 02:32N 59°57' E 030°16'0 0.0
2014-Nov-19 09:33N 59°57' E 030°17'  

Dump ship's entire track history